sensor_id;sensor_type;location;lat;lon;timestamp;temperature;humidity
47813;DHT22;34221;45.296;9.516;2023-09-18T03:18:30;24.10;75.20
47813;DHT22;34221;45.296;9.516;2023-09-18T03:20:23;22.20;89.60
47813;DHT22;34221;45.296;9.516;2023-09-18T03:20:39;22.00;90.40
47813;DHT22;34221;45.296;9.516;2023-09-18T03:20:54;21.90;90.50
47813;DHT22;34221;45.296;9.516;2023-09-18T03:21:09;21.90;90.50
47813;DHT22;34221;45.296;9.516;2023-09-18T03:21:24;21.90;90.60
47813;DHT22;34221;45.296;9.516;2023-09-18T03:21:39;21.90;90.60
47813;DHT22;34221;45.296;9.516;2023-09-18T03:21:54;21.90;90.60
47813;DHT22;34221;45.296;9.516;2023-09-18T03:22:09;21.90;90.60
47813;DHT22;34221;45.296;9.516;2023-09-18T03:22:25;21.90;90.70
47813;DHT22;34221;45.296;9.516;2023-09-18T03:22:41;21.90;90.60
47813;DHT22;34221;45.296;9.516;2023-09-18T03:22:58;21.90;90.60
47813;DHT22;34221;45.296;9.516;2023-09-18T03:23:14;21.90;90.60
47813;DHT22;34221;45.296;9.516;2023-09-18T03:23:29;21.90;90.60
47813;DHT22;34221;45.296;9.516;2023-09-18T03:23:44;21.90;90.60
47813;DHT22;34221;45.296;9.516;2023-09-18T03:24:00;21.90;90.60
47813;DHT22;34221;45.296;9.516;2023-09-18T03:24:16;21.90;90.60
47813;DHT22;34221;45.296;9.516;2023-09-18T03:24:31;21.90;90.60
47813;DHT22;34221;45.296;9.516;2023-09-18T03:24:46;21.90;90.60
47813;DHT22;34221;45.296;9.516;2023-09-18T03:25:01;21.90;90.60
47813;DHT22;34221;45.296;9.516;2023-09-18T03:25:17;22.00;90.60
47813;DHT22;34221;45.296;9.516;2023-09-18T03:25:32;21.90;90.60
47813;DHT22;34221;45.296;9.516;2023-09-18T03:25:48;21.90;90.60
47813;DHT22;34221;45.296;9.516;2023-09-18T03:26:03;21.90;90.70
47813;DHT22;34221;45.296;9.516;2023-09-18T03:26:18;22.00;90.70
47813;DHT22;34221;45.296;9.516;2023-09-18T03:26:33;21.90;90.70
47813;DHT22;34221;45.296;9.516;2023-09-18T03:26:48;21.90;90.70
47813;DHT22;34221;45.296;9.516;2023-09-18T03:27:04;21.90;90.70
47813;DHT22;34221;45.296;9.516;2023-09-18T03:27:19;21.90;90.70
47813;DHT22;34221;45.296;9.516;2023-09-18T03:27:34;21.90;90.80
47813;DHT22;34221;45.296;9.516;2023-09-18T03:27:51;21.90;90.80
47813;DHT22;34221;45.296;9.516;2023-09-18T03:28:08;21.80;90.80
47813;DHT22;34221;45.296;9.516;2023-09-18T03:28:24;21.90;90.80
47813;DHT22;34221;45.296;9.516;2023-09-18T03:28:39;21.90;90.80
47813;DHT22;34221;45.296;9.516;2023-09-18T03:28:54;21.80;90.80
47813;DHT22;34221;45.296;9.516;2023-09-18T03:29:10;21.80;90.90
47813;DHT22;34221;45.296;9.516;2023-09-18T03:29:25;21.90;90.90
47813;DHT22;34221;45.296;9.516;2023-09-18T03:29:41;21.90;90.90
47813;DHT22;34221;45.296;9.516;2023-09-18T03:29:57;21.90;90.90
47813;DHT22;34221;45.296;9.516;2023-09-18T03:30:12;21.90;90.80
47813;DHT22;34221;45.296;9.516;2023-09-18T03:30:30;21.90;90.80
47813;DHT22;34221;45.296;9.516;2023-09-18T03:30:46;21.90;91.00
47813;DHT22;34221;45.296;9.516;2023-09-18T03:31:01;22.00;90.70
47813;DHT22;34221;45.296;9.516;2023-09-18T03:31:16;22.00;90.70
47813;DHT22;34221;45.296;9.516;2023-09-18T03:31:31;22.00;90.70
47813;DHT22;34221;45.296;9.516;2023-09-18T03:31:46;22.00;90.70
47813;DHT22;34221;45.296;9.516;2023-09-18T03:32:01;22.00;90.70
47813;DHT22;34221;45.296;9.516;2023-09-18T03:32:16;22.00;90.70
47813;DHT22;34221;45.296;9.516;2023-09-18T03:32:31;22.00;90.70
47813;DHT22;34221;45.296;9.516;2023-09-18T03:32:47;22.00;90.70
47813;DHT22;34221;45.296;9.516;2023-09-18T03:33:06;22.00;90.70
47813;DHT22;34221;45.296;9.516;2023-09-18T03:33:21;22.00;91.00
47813;DHT22;34221;45.296;9.516;2023-09-18T03:33:36;22.00;90.70
47813;DHT22;34221;45.296;9.516;2023-09-18T03:33:51;22.00;90.70
47813;DHT22;34221;45.296;9.516;2023-09-18T03:34:06;22.00;90.70
47813;DHT22;34221;45.296;9.516;2023-09-18T03:34:21;22.00;90.60
47813;DHT22;34221;45.296;9.516;2023-09-18T03:34:36;21.90;90.60
47813;DHT22;34221;45.296;9.516;2023-09-18T03:34:51;21.90;90.60
47813;DHT22;34221;45.296;9.516;2023-09-18T03:35:07;22.00;90.70
47813;DHT22;34221;45.296;9.516;2023-09-18T03:35:24;22.00;90.70
47813;DHT22;34221;45.296;9.516;2023-09-18T03:35:46;22.00;90.70
47813;DHT22;34221;45.296;9.516;2023-09-18T03:36:03;22.00;90.60
47813;DHT22;34221;45.296;9.516;2023-09-18T03:36:22;22.00;90.60
47813;DHT22;34221;45.296;9.516;2023-09-18T03:36:38;22.00;90.50
47813;DHT22;34221;45.296;9.516;2023-09-18T03:36:54;22.10;90.50
47813;DHT22;34221;45.296;9.516;2023-09-18T03:37:09;22.00;90.50
47813;DHT22;34221;45.296;9.516;2023-09-18T03:37:24;22.10;90.60
47813;DHT22;34221;45.296;9.516;2023-09-18T03:37:39;22.10;90.50
47813;DHT22;34221;45.296;9.516;2023-09-18T03:37:54;22.10;90.40
47813;DHT22;34221;45.296;9.516;2023-09-18T03:38:10;22.10;90.40
47813;DHT22;34221;45.296;9.516;2023-09-18T03:38:25;22.20;90.40
47813;DHT22;34221;45.296;9.516;2023-09-18T03:38:40;22.20;90.40
47813;DHT22;34221;45.296;9.516;2023-09-18T03:38:56;22.20;90.30
47813;DHT22;34221;45.296;9.516;2023-09-18T03:39:11;22.20;90.30
47813;DHT22;34221;45.296;9.516;2023-09-18T03:39:26;22.20;90.30
47813;DHT22;34221;45.296;9.516;2023-09-18T03:39:41;22.20;90.30
47813;DHT22;34221;45.296;9.516;2023-09-18T03:39:56;22.20;90.30
47813;DHT22;34221;45.296;9.516;2023-09-18T03:40:11;22.20;90.20
47813;DHT22;34221;45.296;9.516;2023-09-18T03:40:26;22.20;90.20
47813;DHT22;34221;45.296;9.516;2023-09-18T03:40:42;22.20;90.10
47813;DHT22;34221;45.296;9.516;2023-09-18T03:40:59;22.20;90.20
47813;DHT22;34221;45.296;9.516;2023-09-18T03:41:15;22.20;90.20
47813;DHT22;34221;45.296;9.516;2023-09-18T03:41:30;22.20;90.10
47813;DHT22;34221;45.296;9.516;2023-09-18T03:41:48;22.20;90.20
47813;DHT22;34221;45.296;9.516;2023-09-18T03:42:04;22.20;90.10
47813;DHT22;34221;45.296;9.516;2023-09-18T03:42:19;22.20;90.10
47813;DHT22;34221;45.296;9.516;2023-09-18T03:42:34;22.20;90.10
47813;DHT22;34221;45.296;9.516;2023-09-18T03:42:50;22.20;90.10
47813;DHT22;34221;45.296;9.516;2023-09-18T03:43:05;22.20;90.10
47813;DHT22;34221;45.296;9.516;2023-09-18T03:43:20;22.20;90.00
47813;DHT22;34221;45.296;9.516;2023-09-18T03:43:36;22.20;90.00
47813;DHT22;34221;45.296;9.516;2023-09-18T03:43:51;22.20;90.10
47813;DHT22;34221;45.296;9.516;2023-09-18T03:44:06;22.20;90.10
47813;DHT22;34221;45.296;9.516;2023-09-18T03:44:21;22.20;90.20
47813;DHT22;34221;45.296;9.516;2023-09-18T03:44:37;22.20;90.10
47813;DHT22;34221;45.296;9.516;2023-09-18T03:44:52;22.20;90.10
47813;DHT22;34221;45.296;9.516;2023-09-18T03:45:09;22.20;90.00
47813;DHT22;34221;45.296;9.516;2023-09-18T03:45:31;22.30;90.10
47813;DHT22;34221;45.296;9.516;2023-09-18T03:45:46;22.30;90.00
47813;DHT22;34221;45.296;9.516;2023-09-18T03:46:06;22.30;90.00
47813;DHT22;34221;45.296;9.516;2023-09-18T03:46:27;22.30;90.00
47813;DHT22;34221;45.296;9.516;2023-09-18T03:46:42;22.30;90.00
47813;DHT22;34221;45.296;9.516;2023-09-18T03:46:57;22.30;90.00
47813;DHT22;34221;45.296;9.516;2023-09-18T03:47:11;22.30;90.00
47813;DHT22;34221;45.296;9.516;2023-09-18T03:47:26;22.30;90.00
47813;DHT22;34221;45.296;9.516;2023-09-18T03:47:41;22.30;90.00
47813;DHT22;34221;45.296;9.516;2023-09-18T03:47:57;22.30;90.00
47813;DHT22;34221;45.296;9.516;2023-09-18T03:48:12;22.30;89.90
47813;DHT22;34221;45.296;9.516;2023-09-18T03:48:27;22.30;89.80
47813;DHT22;34221;45.296;9.516;2023-09-18T03:48:43;22.30;89.80
47813;DHT22;34221;45.296;9.516;2023-09-18T03:48:58;22.30;89.70
47813;DHT22;34221;45.296;9.516;2023-09-18T03:49:15;22.30;89.70
47813;DHT22;34221;45.296;9.516;2023-09-18T03:49:30;22.30;89.70
47813;DHT22;34221;45.296;9.516;2023-09-18T03:49:45;22.20;89.70
47813;DHT22;34221;45.296;9.516;2023-09-18T03:50:01;22.20;89.80
47813;DHT22;34221;45.296;9.516;2023-09-18T03:50:17;22.20;89.80
47813;DHT22;34221;45.296;9.516;2023-09-18T03:50:32;22.20;89.80
47813;DHT22;34221;45.296;9.516;2023-09-18T03:50:47;22.20;89.90
47813;DHT22;34221;45.296;9.516;2023-09-18T03:51:06;22.20;89.90
47813;DHT22;34221;45.296;9.516;2023-09-18T03:51:24;22.10;90.00
47813;DHT22;34221;45.296;9.516;2023-09-18T03:51:39;22.10;90.10
47813;DHT22;34221;45.296;9.516;2023-09-18T03:51:55;22.10;90.10
47813;DHT22;34221;45.296;9.516;2023-09-18T03:52:10;22.10;90.10
47813;DHT22;34221;45.296;9.516;2023-09-18T03:52:24;22.10;90.40
47813;DHT22;34221;45.296;9.516;2023-09-18T03:52:40;22.10;90.10
47813;DHT22;34221;45.296;9.516;2023-09-18T03:52:56;22.10;90.20
47813;DHT22;34221;45.296;9.516;2023-09-18T03:53:12;22.10;90.10
47813;DHT22;34221;45.296;9.516;2023-09-18T03:53:27;22.10;90.20
47813;DHT22;34221;45.296;9.516;2023-09-18T03:53:42;22.10;90.20
47813;DHT22;34221;45.296;9.516;2023-09-18T03:53:57;22.10;90.10
47813;DHT22;34221;45.296;9.516;2023-09-18T03:54:12;22.10;90.10
47813;DHT22;34221;45.296;9.516;2023-09-18T03:54:27;22.10;90.10
47813;DHT22;34221;45.296;9.516;2023-09-18T03:54:42;22.10;90.20
47813;DHT22;34221;45.296;9.516;2023-09-18T03:54:57;22.10;90.10
47813;DHT22;34221;45.296;9.516;2023-09-18T03:55:12;22.10;90.20
47813;DHT22;34221;45.296;9.516;2023-09-18T03:55:27;22.10;90.20
47813;DHT22;34221;45.296;9.516;2023-09-18T03:55:42;22.10;90.20
47813;DHT22;34221;45.296;9.516;2023-09-18T03:55:57;22.10;90.20
47813;DHT22;34221;45.296;9.516;2023-09-18T03:56:13;22.10;90.20
47813;DHT22;34221;45.296;9.516;2023-09-18T03:56:28;22.10;90.20
47813;DHT22;34221;45.296;9.516;2023-09-18T03:56:44;22.10;90.20
47813;DHT22;34221;45.296;9.516;2023-09-18T03:57:00;22.10;90.30
47813;DHT22;34221;45.296;9.516;2023-09-18T03:57:15;22.10;90.20
47813;DHT22;34221;45.296;9.516;2023-09-18T03:57:30;22.10;90.20
47813;DHT22;34221;45.296;9.516;2023-09-18T03:57:45;22.10;90.20
47813;DHT22;34221;45.296;9.516;2023-09-18T03:58:04;22.10;90.20
47813;DHT22;34221;45.296;9.516;2023-09-18T03:58:19;22.10;90.20
47813;DHT22;34221;45.296;9.516;2023-09-18T03:58:34;22.10;90.20
47813;DHT22;34221;45.296;9.516;2023-09-18T03:58:49;22.10;90.20
47813;DHT22;34221;45.296;9.516;2023-09-18T03:59:04;22.10;90.30
47813;DHT22;34221;45.296;9.516;2023-09-18T03:59:19;22.10;90.30
47813;DHT22;34221;45.296;9.516;2023-09-18T03:59:34;22.10;90.20
47813;DHT22;34221;45.296;9.516;2023-09-18T03:59:49;22.10;90.30
47813;DHT22;34221;45.296;9.516;2023-09-18T04:00:04;22.10;90.20
47813;DHT22;34221;45.296;9.516;2023-09-18T04:00:26;22.10;90.20
47813;DHT22;34221;45.296;9.516;2023-09-18T04:00:42;22.10;90.10
47813;DHT22;34221;45.296;9.516;2023-09-18T04:00:56;22.10;90.20
47813;DHT22;34221;45.296;9.516;2023-09-18T04:01:11;22.10;90.20
47813;DHT22;34221;45.296;9.516;2023-09-18T04:01:27;22.10;90.30
47813;DHT22;34221;45.296;9.516;2023-09-18T04:01:42;22.10;90.30
47813;DHT22;34221;45.296;9.516;2023-09-18T04:01:57;22.10;90.20
47813;DHT22;34221;45.296;9.516;2023-09-18T04:02:12;22.10;90.30
47813;DHT22;34221;45.296;9.516;2023-09-18T04:02:27;22.10;90.20
47813;DHT22;34221;45.296;9.516;2023-09-18T04:02:42;22.20;90.20
47813;DHT22;34221;45.296;9.516;2023-09-18T04:02:57;22.20;90.10
47813;DHT22;34221;45.296;9.516;2023-09-18T04:03:12;22.20;90.10
47813;DHT22;34221;45.296;9.516;2023-09-18T04:03:27;22.20;90.10
47813;DHT22;34221;45.296;9.516;2023-09-18T04:03:42;22.20;90.10
47813;DHT22;34221;45.296;9.516;2023-09-18T04:04:01;22.20;90.10
47813;DHT22;34221;45.296;9.516;2023-09-18T04:04:17;22.20;90.00
47813;DHT22;34221;45.296;9.516;2023-09-18T04:04:32;22.20;90.10
47813;DHT22;34221;45.296;9.516;2023-09-18T04:04:47;22.20;90.00
47813;DHT22;34221;45.296;9.516;2023-09-18T04:05:02;22.20;90.00
47813;DHT22;34221;45.296;9.516;2023-09-18T04:05:18;22.20;90.00
47813;DHT22;34221;45.296;9.516;2023-09-18T04:05:33;22.20;90.00
47813;DHT22;34221;45.296;9.516;2023-09-18T04:05:48;22.20;90.00
47813;DHT22;34221;45.296;9.516;2023-09-18T04:06:03;22.20;90.00
47813;DHT22;34221;45.296;9.516;2023-09-18T04:06:20;22.20;90.00
47813;DHT22;34221;45.296;9.516;2023-09-18T04:06:37;22.30;90.00
47813;DHT22;34221;45.296;9.516;2023-09-18T04:06:56;22.30;89.80
47813;DHT22;34221;45.296;9.516;2023-09-18T04:07:11;22.30;89.80
47813;DHT22;34221;45.296;9.516;2023-09-18T04:07:30;22.20;89.80
47813;DHT22;34221;45.296;9.516;2023-09-18T04:07:46;22.30;89.90
47813;DHT22;34221;45.296;9.516;2023-09-18T04:08:01;22.30;89.80
47813;DHT22;34221;45.296;9.516;2023-09-18T04:08:16;22.20;89.80
47813;DHT22;34221;45.296;9.516;2023-09-18T04:08:31;22.20;89.70
47813;DHT22;34221;45.296;9.516;2023-09-18T04:08:49;22.30;89.70
47813;DHT22;34221;45.296;9.516;2023-09-18T04:09:04;22.30;89.70
47813;DHT22;34221;45.296;9.516;2023-09-18T04:09:19;22.30;89.60
47813;DHT22;34221;45.296;9.516;2023-09-18T04:09:34;22.30;89.70
47813;DHT22;34221;45.296;9.516;2023-09-18T04:09:52;22.20;89.60
47813;DHT22;34221;45.296;9.516;2023-09-18T04:10:07;22.30;89.50
47813;DHT22;34221;45.296;9.516;2023-09-18T04:10:23;22.30;89.40
47813;DHT22;34221;45.296;9.516;2023-09-18T04:10:38;22.30;89.40
47813;DHT22;34221;45.296;9.516;2023-09-18T04:10:54;22.20;89.50
47813;DHT22;34221;45.296;9.516;2023-09-18T04:11:10;22.30;89.50
47813;DHT22;34221;45.296;9.516;2023-09-18T04:11:25;22.30;89.40
47813;DHT22;34221;45.296;9.516;2023-09-18T04:11:40;22.30;89.40
47813;DHT22;34221;45.296;9.516;2023-09-18T04:11:55;22.30;89.40
47813;DHT22;34221;45.296;9.516;2023-09-18T04:12:10;22.30;89.40
47813;DHT22;34221;45.296;9.516;2023-09-18T04:12:25;22.30;89.30
47813;DHT22;34221;45.296;9.516;2023-09-18T04:12:41;22.20;89.30
47813;DHT22;34221;45.296;9.516;2023-09-18T04:12:56;22.20;89.40
47813;DHT22;34221;45.296;9.516;2023-09-18T04:13:11;22.20;89.40
47813;DHT22;34221;45.296;9.516;2023-09-18T04:13:26;22.20;89.50
47813;DHT22;34221;45.296;9.516;2023-09-18T04:13:41;22.20;89.50
47813;DHT22;34221;45.296;9.516;2023-09-18T04:13:56;22.20;89.60
47813;DHT22;34221;45.296;9.516;2023-09-18T04:14:11;22.20;89.70
47813;DHT22;34221;45.296;9.516;2023-09-18T04:14:26;22.20;89.70
47813;DHT22;34221;45.296;9.516;2023-09-18T04:14:41;22.20;89.70
47813;DHT22;34221;45.296;9.516;2023-09-18T04:14:56;22.20;89.70
47813;DHT22;34221;45.296;9.516;2023-09-18T04:15:14;22.20;89.80
47813;DHT22;34221;45.296;9.516;2023-09-18T04:15:30;22.20;89.80
47813;DHT22;34221;45.296;9.516;2023-09-18T04:15:47;22.20;89.80
47813;DHT22;34221;45.296;9.516;2023-09-18T04:16:03;22.10;89.90
47813;DHT22;34221;45.296;9.516;2023-09-18T04:16:19;22.10;90.00
47813;DHT22;34221;45.296;9.516;2023-09-18T04:16:33;22.10;90.00
47813;DHT22;34221;45.296;9.516;2023-09-18T04:16:50;22.00;90.10
47813;DHT22;34221;45.296;9.516;2023-09-18T04:17:05;22.00;90.20
47813;DHT22;34221;45.296;9.516;2023-09-18T04:17:20;21.90;90.30
47813;DHT22;34221;45.296;9.516;2023-09-18T04:17:35;22.00;90.40
47813;DHT22;34221;45.296;9.516;2023-09-18T04:17:52;22.00;90.50
47813;DHT22;34221;45.296;9.516;2023-09-18T04:18:07;21.90;90.50
47813;DHT22;34221;45.296;9.516;2023-09-18T04:18:23;21.90;90.60
47813;DHT22;34221;45.296;9.516;2023-09-18T04:18:38;21.90;90.70
47813;DHT22;34221;45.296;9.516;2023-09-18T04:18:53;21.80;90.70
47813;DHT22;34221;45.296;9.516;2023-09-18T04:19:09;21.80;90.80
47813;DHT22;34221;45.296;9.516;2023-09-18T04:19:24;21.80;90.80
47813;DHT22;34221;45.296;9.516;2023-09-18T04:19:39;21.80;90.90
47813;DHT22;34221;45.296;9.516;2023-09-18T04:19:54;21.70;90.90
47813;DHT22;34221;45.296;9.516;2023-09-18T04:20:10;21.70;90.90
47813;DHT22;34221;45.296;9.516;2023-09-18T04:20:26;21.70;91.00
47813;DHT22;34221;45.296;9.516;2023-09-18T04:20:42;21.70;91.00
47813;DHT22;34221;45.296;9.516;2023-09-18T04:20:57;21.70;91.10
47813;DHT22;34221;45.296;9.516;2023-09-18T04:21:12;21.70;91.10
47813;DHT22;34221;45.296;9.516;2023-09-18T04:21:28;21.70;91.10
47813;DHT22;34221;45.296;9.516;2023-09-18T04:21:44;21.70;91.10
47813;DHT22;34221;45.296;9.516;2023-09-18T04:21:59;21.70;91.10
47813;DHT22;34221;45.296;9.516;2023-09-18T04:22:13;21.70;91.10
47813;DHT22;34221;45.296;9.516;2023-09-18T04:22:28;21.70;91.10
47813;DHT22;34221;45.296;9.516;2023-09-18T04:22:45;21.70;91.50
47813;DHT22;34221;45.296;9.516;2023-09-18T04:23:19;21.70;91.20
47813;DHT22;34221;45.296;9.516;2023-09-18T04:23:36;21.70;91.10
47813;DHT22;34221;45.296;9.516;2023-09-18T04:23:51;21.70;91.10
47813;DHT22;34221;45.296;9.516;2023-09-18T04:24:12;21.70;91.10
47813;DHT22;34221;45.296;9.516;2023-09-18T04:24:27;21.70;91.20
47813;DHT22;34221;45.296;9.516;2023-09-18T04:24:42;21.70;91.10
47813;DHT22;34221;45.296;9.516;2023-09-18T04:24:57;21.70;91.20
47813;DHT22;34221;45.296;9.516;2023-09-18T04:25:12;21.70;91.20
47813;DHT22;34221;45.296;9.516;2023-09-18T04:25:28;21.70;91.10
47813;DHT22;34221;45.296;9.516;2023-09-18T04:25:43;21.70;91.10
47813;DHT22;34221;45.296;9.516;2023-09-18T04:26:13;21.70;91.10
47813;DHT22;34221;45.296;9.516;2023-09-18T04:26:31;21.70;91.00
47813;DHT22;34221;45.296;9.516;2023-09-18T04:26:48;21.80;91.00
47813;DHT22;34221;45.296;9.516;2023-09-18T04:27:05;21.80;91.00
47813;DHT22;34221;45.296;9.516;2023-09-18T04:27:20;21.80;91.00
47813;DHT22;34221;45.296;9.516;2023-09-18T04:27:35;21.80;90.90
47813;DHT22;34221;45.296;9.516;2023-09-18T04:27:50;21.80;90.90
47813;DHT22;34221;45.296;9.516;2023-09-18T04:28:07;21.80;91.20
47813;DHT22;34221;45.296;9.516;2023-09-18T04:28:22;21.80;90.90
47813;DHT22;34221;45.296;9.516;2023-09-18T04:28:37;21.80;90.80
47813;DHT22;34221;45.296;9.516;2023-09-18T04:28:52;21.80;90.80
47813;DHT22;34221;45.296;9.516;2023-09-18T04:29:09;21.80;90.80
47813;DHT22;34221;45.296;9.516;2023-09-18T04:29:23;21.80;90.80
47813;DHT22;34221;45.296;9.516;2023-09-18T04:29:39;21.80;91.10
47813;DHT22;34221;45.296;9.516;2023-09-18T04:30:30;21.90;90.80
47813;DHT22;34221;45.296;9.516;2023-09-18T04:30:45;21.90;90.70
47813;DHT22;34221;45.296;9.516;2023-09-18T04:31:00;21.90;90.70
47813;DHT22;34221;45.296;9.516;2023-09-18T04:31:16;21.90;90.70
47813;DHT22;34221;45.296;9.516;2023-09-18T04:31:31;21.90;90.70
47813;DHT22;34221;45.296;9.516;2023-09-18T04:31:46;21.90;90.70
47813;DHT22;34221;45.296;9.516;2023-09-18T04:32:03;21.90;90.70
47813;DHT22;34221;45.296;9.516;2023-09-18T04:32:19;21.90;90.70
47813;DHT22;34221;45.296;9.516;2023-09-18T04:32:35;21.90;90.60
47813;DHT22;34221;45.296;9.516;2023-09-18T04:32:51;21.90;90.50
47813;DHT22;34221;45.296;9.516;2023-09-18T04:33:06;21.90;90.60
47813;DHT22;34221;45.296;9.516;2023-09-18T04:33:21;21.90;90.60
47813;DHT22;34221;45.296;9.516;2023-09-18T04:33:36;21.90;90.60
47813;DHT22;34221;45.296;9.516;2023-09-18T04:33:51;21.90;90.60
47813;DHT22;34221;45.296;9.516;2023-09-18T04:34:06;21.90;90.60
47813;DHT22;34221;45.296;9.516;2023-09-18T04:34:22;21.90;90.70
47813;DHT22;34221;45.296;9.516;2023-09-18T04:34:37;21.90;90.70
47813;DHT22;34221;45.296;9.516;2023-09-18T04:34:54;21.90;90.70
47813;DHT22;34221;45.296;9.516;2023-09-18T04:35:09;21.80;90.70
47813;DHT22;34221;45.296;9.516;2023-09-18T04:35:24;21.80;90.70
47813;DHT22;34221;45.296;9.516;2023-09-18T04:35:40;21.80;90.80
47813;DHT22;34221;45.296;9.516;2023-09-18T04:35:56;21.80;91.10
47813;DHT22;34221;45.296;9.516;2023-09-18T04:36:11;21.80;90.80
47813;DHT22;34221;45.296;9.516;2023-09-18T04:36:30;21.80;90.90
47813;DHT22;34221;45.296;9.516;2023-09-18T04:36:47;21.80;90.80
47813;DHT22;34221;45.296;9.516;2023-09-18T04:37:02;21.80;90.80
47813;DHT22;34221;45.296;9.516;2023-09-18T04:37:18;21.90;90.90
47813;DHT22;34221;45.296;9.516;2023-09-18T04:37:38;21.90;90.80
47813;DHT22;34221;45.296;9.516;2023-09-18T04:37:55;21.90;90.70
47813;DHT22;34221;45.296;9.516;2023-09-18T04:38:11;21.90;90.70
47813;DHT22;34221;45.296;9.516;2023-09-18T04:38:26;21.90;90.80
47813;DHT22;34221;45.296;9.516;2023-09-18T04:38:41;21.90;90.80
47813;DHT22;34221;45.296;9.516;2023-09-18T04:38:57;21.80;91.00
47813;DHT22;34221;45.296;9.516;2023-09-18T04:39:12;21.80;90.80
47813;DHT22;34221;45.296;9.516;2023-09-18T04:39:27;21.90;90.80
47813;DHT22;34221;45.296;9.516;2023-09-18T04:39:44;21.90;90.80
47813;DHT22;34221;45.296;9.516;2023-09-18T04:39:59;21.90;90.70
47813;DHT22;34221;45.296;9.516;2023-09-18T04:40:14;21.90;90.80
47813;DHT22;34221;45.296;9.516;2023-09-18T04:40:30;21.90;90.70
47813;DHT22;34221;45.296;9.516;2023-09-18T04:40:47;21.90;90.70
47813;DHT22;34221;45.296;9.516;2023-09-18T04:41:03;21.90;90.60
47813;DHT22;34221;45.296;9.516;2023-09-18T04:41:17;21.90;90.60
47813;DHT22;34221;45.296;9.516;2023-09-18T04:41:33;21.90;90.60
47813;DHT22;34221;45.296;9.516;2023-09-18T04:41:49;22.00;90.70
47813;DHT22;34221;45.296;9.516;2023-09-18T04:42:04;22.00;90.60
47813;DHT22;34221;45.296;9.516;2023-09-18T04:42:19;22.00;90.60
47813;DHT22;34221;45.296;9.516;2023-09-18T04:42:34;22.00;90.50
47813;DHT22;34221;45.296;9.516;2023-09-18T04:42:49;22.00;90.50
47813;DHT22;34221;45.296;9.516;2023-09-18T04:43:04;22.00;90.40
47813;DHT22;34221;45.296;9.516;2023-09-18T04:43:19;21.90;90.40
47813;DHT22;34221;45.296;9.516;2023-09-18T04:43:35;22.00;90.50
47813;DHT22;34221;45.296;9.516;2023-09-18T04:43:50;22.00;90.50
47813;DHT22;34221;45.296;9.516;2023-09-18T04:44:05;22.00;90.50
47813;DHT22;34221;45.296;9.516;2023-09-18T04:44:22;22.00;90.50
47813;DHT22;34221;45.296;9.516;2023-09-18T04:44:37;22.00;90.50
47813;DHT22;34221;45.296;9.516;2023-09-18T04:44:53;22.00;90.50
47813;DHT22;34221;45.296;9.516;2023-09-18T04:45:08;22.00;90.50
47813;DHT22;34221;45.296;9.516;2023-09-18T04:45:25;22.00;90.40
47813;DHT22;34221;45.296;9.516;2023-09-18T04:45:40;22.00;90.40
47813;DHT22;34221;45.296;9.516;2023-09-18T04:45:57;22.00;90.30
47813;DHT22;34221;45.296;9.516;2023-09-18T04:46:12;22.00;90.30
47813;DHT22;34221;45.296;9.516;2023-09-18T04:46:28;22.00;90.30
47813;DHT22;34221;45.296;9.516;2023-09-18T04:46:44;22.00;90.30
47813;DHT22;34221;45.296;9.516;2023-09-18T04:47:00;22.00;90.20
47813;DHT22;34221;45.296;9.516;2023-09-18T04:47:15;22.00;90.20
47813;DHT22;34221;45.296;9.516;2023-09-18T04:47:30;22.00;90.20
47813;DHT22;34221;45.296;9.516;2023-09-18T04:47:45;22.00;90.20
47813;DHT22;34221;45.296;9.516;2023-09-18T04:48:01;22.00;90.20
47813;DHT22;34221;45.296;9.516;2023-09-18T04:48:16;21.90;90.30
47813;DHT22;34221;45.296;9.516;2023-09-18T04:48:32;21.90;90.40
47813;DHT22;34221;45.296;9.516;2023-09-18T04:48:47;21.90;90.50
47813;DHT22;34221;45.296;9.516;2023-09-18T04:49:02;21.90;90.50
47813;DHT22;34221;45.296;9.516;2023-09-18T04:49:18;21.90;90.50
47813;DHT22;34221;45.296;9.516;2023-09-18T04:49:33;22.00;90.60
47813;DHT22;34221;45.296;9.516;2023-09-18T04:49:48;22.00;90.60
47813;DHT22;34221;45.296;9.516;2023-09-18T04:50:05;22.00;90.50
47813;DHT22;34221;45.296;9.516;2023-09-18T04:50:21;22.00;90.60
47813;DHT22;34221;45.296;9.516;2023-09-18T04:50:36;22.00;90.60
47813;DHT22;34221;45.296;9.516;2023-09-18T04:50:51;22.00;90.60
47813;DHT22;34221;45.296;9.516;2023-09-18T04:51:06;22.00;90.50
47813;DHT22;34221;45.296;9.516;2023-09-18T04:51:21;22.00;90.50
47813;DHT22;34221;45.296;9.516;2023-09-18T04:51:37;22.00;90.60
47813;DHT22;34221;45.296;9.516;2023-09-18T04:51:53;22.00;90.60
47813;DHT22;34221;45.296;9.516;2023-09-18T04:52:09;22.00;90.60
47813;DHT22;34221;45.296;9.516;2023-09-18T04:52:24;22.00;90.60
47813;DHT22;34221;45.296;9.516;2023-09-18T04:52:39;22.00;90.50
47813;DHT22;34221;45.296;9.516;2023-09-18T04:53:02;22.00;90.50
47813;DHT22;34221;45.296;9.516;2023-09-18T04:53:18;22.00;90.50
47813;DHT22;34221;45.296;9.516;2023-09-18T04:53:33;22.00;90.50
47813;DHT22;34221;45.296;9.516;2023-09-18T04:53:49;22.00;90.60
47813;DHT22;34221;45.296;9.516;2023-09-18T04:54:04;22.00;90.50
47813;DHT22;34221;45.296;9.516;2023-09-18T04:54:19;22.00;90.50
47813;DHT22;34221;45.296;9.516;2023-09-18T04:54:34;22.00;90.50
47813;DHT22;34221;45.296;9.516;2023-09-18T04:54:49;22.00;90.50
47813;DHT22;34221;45.296;9.516;2023-09-18T04:55:04;22.00;90.50
47813;DHT22;34221;45.296;9.516;2023-09-18T04:55:23;22.10;90.50
47813;DHT22;34221;45.296;9.516;2023-09-18T04:55:38;22.00;90.60
47813;DHT22;34221;45.296;9.516;2023-09-18T04:55:53;22.10;90.80
47813;DHT22;34221;45.296;9.516;2023-09-18T04:56:09;22.10;90.50
47813;DHT22;34221;45.296;9.516;2023-09-18T04:56:25;22.10;90.40
47813;DHT22;34221;45.296;9.516;2023-09-18T04:56:41;22.10;90.40
47813;DHT22;34221;45.296;9.516;2023-09-18T04:56:57;22.10;90.40
47813;DHT22;34221;45.296;9.516;2023-09-18T04:57:12;22.10;90.40
47813;DHT22;34221;45.296;9.516;2023-09-18T04:57:27;22.10;90.30
47813;DHT22;34221;45.296;9.516;2023-09-18T04:57:42;22.10;90.30
47813;DHT22;34221;45.296;9.516;2023-09-18T04:57:57;22.10;90.30
47813;DHT22;34221;45.296;9.516;2023-09-18T04:58:13;22.10;90.30
47813;DHT22;34221;45.296;9.516;2023-09-18T04:58:28;22.10;90.30
47813;DHT22;34221;45.296;9.516;2023-09-18T04:58:43;22.10;90.20
47813;DHT22;34221;45.296;9.516;2023-09-18T04:58:58;22.10;90.20
47813;DHT22;34221;45.296;9.516;2023-09-18T04:59:13;22.10;90.20
47813;DHT22;34221;45.296;9.516;2023-09-18T04:59:29;22.10;90.20
47813;DHT22;34221;45.296;9.516;2023-09-18T04:59:44;22.20;90.20
47813;DHT22;34221;45.296;9.516;2023-09-18T04:59:59;22.20;90.20